Time;durP1;ratioP1;P1;durP2;ratioP2;P2;SDS_P1;SDS_P2;PMS_P1;PMS_P2;Temp;Humidity;BMP_temperature;BMP_pressure;BME280_temperature;BME280_humidity;BME280_pressure;Samples;Min_cycle;Max_cycle;Signal;HPM_P1;HPM_P2
2023/09/28 00:02:50;;;;;;;25.17;13.07;;;;;;;13.36;62.44;101031.03;5051187;28;20394;-67
2023/09/28 00:05:16;;;;;;;26.17;13.05;;;;;;;13.12;62.49;100996.06;5051900;28;20037;-65
2023/09/28 00:07:43;;;;;;;24.10;13.40;;;;;;;13.28;62.70;101034.31;5049720;28;20467;-66
2023/09/28 00:10:15;;;;;;;26.67;13.27;;;;;;;13.32;63.02;101032.25;5049300;28;20029;-64
2023/09/28 00:12:46;;;;;;;24.35;14.57;;;;;;;13.30;63.13;101028.81;5051556;28;20456;-66
2023/09/28 00:15:12;;;;;;;28.92;14.48;;;;;;;13.26;63.35;101033.56;5051661;28;20092;-67
2023/09/28 00:17:38;;;;;;;27.80;13.95;;;;;;;13.24;63.40;101034.63;5054873;28;20028;-66
2023/09/28 00:20:18;;;;;;;27.20;15.00;;;;;;;13.26;63.73;101038.94;5055689;28;20025;-66
2023/09/28 00:22:49;;;;;;;23.23;15.00;;;;;;;13.26;63.76;101028.19;5050698;28;20029;-67
2023/09/28 00:25:16;;;;;;;27.02;13.60;;;;;;;13.19;63.93;101037.66;5055489;28;20064;-67
2023/09/28 00:27:44;;;;;;;25.13;14.52;;;;;;;13.16;64.14;101029.81;5055498;28;20470;-66
2023/09/28 00:30:18;;;;;;;22.83;13.98;;;;;;;13.11;64.04;101023.91;5053683;28;20114;-67
2023/09/28 00:32:47;;;;;;;27.02;14.68;;;;;;;13.11;64.50;101040.03;5055300;28;20033;-66
2023/09/28 00:35:14;;;;;;;27.00;14.45;;;;;;;13.02;64.60;101031.69;5055210;28;20028;-66
2023/09/28 00:37:41;;;;;;;27.70;14.85;;;;;;;13.05;64.72;101033.28;5054365;28;20029;-66
2023/09/28 00:40:31;;;;;;;24.17;14.30;;;;;;;12.88;65.00;101007.59;5055133;28;20029;-67
2023/09/28 00:42:55;;;;;;;27.75;14.77;;;;;;;13.01;65.01;101031.78;5055269;28;20033;-66
2023/09/28 00:45:22;;;;;;;31.50;15.07;;;;;;;12.98;65.13;101035.53;5053241;28;20029;-65
2023/09/28 00:47:50;;;;;;;27.90;15.40;;;;;;;13.00;65.67;101033.59;5054851;28;20112;-66
2023/09/28 00:50:17;;;;;;;32.83;15.35;;;;;;;13.00;65.70;101038.13;5055186;28;20119;-66
2023/09/28 00:52:47;;;;;;;29.85;15.45;;;;;;;12.91;65.67;101026.19;5053149;28;20405;-66
2023/09/28 00:55:15;;;;;;;30.25;15.65;;;;;;;12.94;65.79;101039.41;5053855;28;20037;-65
2023/09/28 00:57:46;;;;;;;26.50;15.15;;;;;;;12.97;65.96;101036.50;5053697;28;20139;-65
2023/09/28 01:00:18;;;;;;;28.48;15.40;;;;;;;12.88;65.87;101019.19;5054995;28;20025;-65
2023/09/28 01:02:52;;;;;;;27.75;14.85;;;;;;;12.95;65.94;101030.38;5053656;28;20463;-67
2023/09/28 01:05:26;;;;;;;27.75;15.00;;;;;;;12.91;66.05;101032.44;5043677;28;20026;-66
2023/09/28 01:07:52;;;;;;;26.25;15.23;;;;;;;12.87;66.20;101028.22;5034962;28;20132;-65
2023/09/28 01:10:23;;;;;;;31.98;15.55;;;;;;;12.82;66.37;101027.72;5034662;28;20033;-66
2023/09/28 01:12:50;;;;;;;25.90;15.55;;;;;;;12.80;66.94;101028.81;5034160;28;20045;-67
2023/09/28 01:15:16;;;;;;;29.35;15.63;;;;;;;12.61;66.79;101000.53;5033625;28;20041;-65
2023/09/28 01:17:43;;;;;;;31.00;15.85;;;;;;;12.76;67.07;101030.84;5054737;28;20055;-66
2023/09/28 01:20:17;;;;;;;26.25;15.25;;;;;;;12.74;67.17;101016.66;5054453;28;20111;-66
2023/09/28 01:22:43;;;;;;;30.27;14.95;;;;;;;12.69;67.42;101008.91;5053173;28;20118;-66
2023/09/28 01:25:09;;;;;;;27.70;14.45;;;;;;;12.68;67.36;101007.19;5051425;28;20047;-64
2023/09/28 01:27:35;;;;;;;29.30;15.10;;;;;;;12.70;67.45;101016.00;5054238;28;20448;-66
2023/09/28 01:30:03;;;;;;;30.30;15.32;;;;;;;12.71;67.33;101017.72;5054696;28;20031;-66
2023/09/28 01:32:30;;;;;;;25.13;14.10;;;;;;;12.69;67.07;101010.75;5053993;28;20037;-66
2023/09/28 01:34:55;;;;;;;32.03;14.20;;;;;;;12.69;67.19;101014.28;5054152;28;20035;-66
2023/09/28 01:37:29;;;;;;;23.92;14.38;;;;;;;12.72;67.14;101014.06;5054214;28;20415;-66
2023/09/28 01:39:55;;;;;;;28.80;14.35;;;;;;;12.70;66.96;101016.00;5052222;28;20052;-66
2023/09/28 01:42:21;;;;;;;28.63;14.07;;;;;;;12.68;66.81;101020.63;5053710;28;20037;-66
2023/09/28 01:44:46;;;;;;;27.33;13.82;;;;;;;12.61;66.83;101009.44;5036504;28;20040;-66
2023/09/28 01:47:11;;;;;;;22.10;13.10;;;;;;;12.65;67.27;101020.84;5054181;28;20443;-65
2023/09/28 01:49:37;;;;;;;29.63;13.80;;;;;;;12.60;67.20;101021.16;5053840;28;20170;-66
2023/09/28 01:52:03;;;;;;;29.08;13.68;;;;;;;12.65;66.96;101034.28;5051512;28;20120;-63
2023/09/28 01:54:28;;;;;;;29.95;13.07;;;;;;;12.64;66.97;101027.19;5053439;28;20037;-66
2023/09/28 01:56:54;;;;;;;26.52;12.48;;;;;;;12.47;66.77;100998.81;5054106;28;20052;-66
2023/09/28 01:59:19;;;;;;;22.60;11.63;;;;;;;12.61;66.71;101022.88;5051046;28;20096;-65
2023/09/28 02:01:45;;;;;;;25.80;12.20;;;;;;;12.62;66.86;101023.75;5053253;28;20474;-66
2023/09/28 02:04:11;;;;;;;22.90;12.30;;;;;;;12.60;67.06;101021.16;5053467;28;20083;-64
2023/09/28 02:06:36;;;;;;;24.05;12.45;;;;;;;12.59;67.13;101035.56;5053797;28;20032;-67
2023/09/28 02:09:03;;;;;;;20.05;11.00;;;;;;;12.61;66.96;101032.78;5053578;28;20351;-66
2023/09/28 02:11:29;;;;;;;23.00;11.23;;;;;;;12.59;66.56;101029.34;5052247;28;20126;-66
2023/09/28 02:13:55;;;;;;;21.00;11.63;;;;;;;12.58;66.51;101024.94;5051114;28;20088;-65
2023/09/28 02:16:20;;;;;;;23.65;11.30;;;;;;;12.57;66.50;101026.75;5033043;28;20037;-66
2023/09/28 02:18:46;;;;;;;20.08;10.93;;;;;;;12.55;66.86;101027.84;5033363;28;20033;-65
2023/09/28 02:21:14;;;;;;;21.63;10.57;;;;;;;12.29;66.65;100991.06;5033244;28;20418;-66
2023/09/28 02:23:39;;;;;;;23.65;10.68;;;;;;;12.51;67.14;101032.56;5049255;28;20478;-66
2023/09/28 02:26:06;;;;;;;19.50;10.82;;;;;;;12.48;66.77;101024.72;5053448;28;20033;-64
2023/09/28 02:28:32;;;;;;;20.15;10.85;;;;;;;12.48;66.77;101030.94;5053253;28;20121;-64
2023/09/28 02:31:07;;;;;;;17.58;9.68;;;;;;;12.48;66.37;101036.31;5053003;28;20029;-65
2023/09/28 02:33:33;;;;;;;21.27;10.45;;;;;;;12.49;66.57;101034.50;5053325;28;20036;-66
2023/09/28 02:35:59;;;;;;;19.83;10.88;;;;;;;12.43;66.42;101026.88;5052595;28;20052;-66
2023/09/28 02:38:24;;;;;;;19.85;10.23;;;;;;;12.43;67.00;101030.41;5050653;28;20029;-64
2023/09/28 02:40:50;;;;;;;19.30;10.77;;;;;;;12.42;66.82;101027.81;5052683;28;20063;-66
2023/09/28 02:43:15;;;;;;;18.25;10.25;;;;;;;12.40;67.16;101032.44;5052800;28;20025;-65
2023/09/28 02:45:42;;;;;;;18.92;9.95;;;;;;;12.38;67.11;101031.69;5051035;28;20099;-64
2023/09/28 02:48:08;;;;;;;18.73;10.20;;;;;;;12.33;67.13;101027.50;5052993;28;20439;-63
2023/09/28 02:50:34;;;;;;;18.10;10.52;;;;;;;12.13;67.08;100987.72;5052871;28;20116;-65
2023/09/28 02:53:00;;;;;;;20.80;9.40;;;;;;;12.12;67.12;100986.88;5050574;28;20092;-67
2023/09/28 02:55:25;;;;;;;19.90;10.02;;;;;;;12.30;67.14;101021.50;5053054;28;20033;-66
2023/09/28 02:57:51;;;;;;;17.02;9.93;;;;;;;12.28;67.32;101021.59;5051365;28;20025;-65
2023/09/28 03:02:46;;;;;;;19.48;10.02;;;;;;;12.06;67.38;100993.53;5051565;28;20083;-66
2023/09/28 03:05:11;;;;;;;17.65;9.93;;;;;;;12.19;67.44;101020.38;5052876;28;20448;-66
2023/09/28 03:07:39;;;;;;;20.30;9.30;;;;;;;12.25;67.10;101026.28;5047380;28;20064;-63
2023/09/28 03:10:06;;;;;;;15.38;9.38;;;;;;;12.24;67.02;101035.31;5032812;28;20030;-66
2023/09/28 03:12:32;;;;;;;20.13;9.68;;;;;;;12.26;67.05;101038.75;5032755;28;20152;-66
2023/09/28 03:14:58;;;;;;;17.33;10.15;;;;;;;12.13;67.02;101009.19;5032607;28;20240;-65
2023/09/28 03:17:24;;;;;;;18.00;9.18;;;;;;;12.24;67.05;101025.44;5032330;28;20029;-66
2023/09/28 03:19:49;;;;;;;17.48;10.30;;;;;;;12.25;67.33;101015.56;5032269;28;20060;-65
2023/09/28 03:22:15;;;;;;;17.15;9.55;;;;;;;12.08;67.57;100981.81;5033763;28;20373;-66
2023/09/28 03:24:41;;;;;;;16.38;9.13;;;;;;;12.27;67.28;101019.88;5032837;28;20450;-65
2023/09/28 03:27:08;;;;;;;16.23;9.05;;;;;;;12.28;66.94;101018.91;5032672;28;20053;-66
2023/09/28 03:29:34;;;;;;;14.60;9.18;;;;;;;12.31;66.77;101028.59;5032493;28;20061;-65
2023/09/28 03:32:00;;;;;;;13.85;8.85;;;;;;;12.35;66.55;101020.19;5033458;28;20064;-65
2023/09/28 03:34:25;;;;;;;17.50;9.25;;;;;;;12.41;66.03;101018.91;5032305;28;20037;-65
2023/09/28 03:36:51;;;;;;;14.88;8.95;;;;;;;12.41;66.00;101018.91;5030657;28;20372;-64
2023/09/28 03:39:17;;;;;;;13.00;8.50;;;;;;;12.52;65.74;101028.03;5031863;28;20033;-65
2023/09/28 03:41:42;;;;;;;13.13;8.73;;;;;;;12.36;65.58;100986.16;5032640;28;20403;-64
2023/09/28 03:44:08;;;;;;;15.50;8.55;;;;;;;12.65;65.42;101026.22;5046111;28;20033;-64
2023/09/28 03:46:34;;;;;;;13.52;8.63;;;;;;;12.71;65.13;101015.03;5041135;28;20085;-66
2023/09/28 03:48:59;;;;;;;13.80;8.57;;;;;;;12.83;65.21;101028.59;5031667;28;20029;-65
2023/09/28 03:51:25;;;;;;;18.50;8.75;;;;;;;12.87;64.57;101016.63;5034937;28;20163;-65
2023/09/28 03:53:50;;;;;;;11.10;7.75;;;;;;;13.01;64.10;101029.09;5037088;28;20435;-65
2023/09/28 03:56:16;;;;;;;16.95;9.10;;;;;;;13.15;63.52;101033.47;5035872;28;20399;-66
2023/09/28 03:58:41;;;;;;;14.63;9.10;;;;;;;13.26;63.36;101028.19;5035651;28;20072;-65
2023/09/28 04:01:07;;;;;;;12.88;8.63;;;;;;;13.38;62.92;101025.56;5036261;28;20033;-64
2023/09/28 04:03:35;;;;;;;14.30;8.35;;;;;;;13.46;62.75;101015.13;5035879;28;20480;-65
2023/09/28 04:06:01;;;;;;;12.15;8.88;;;;;;;13.39;62.37;100987.81;5035512;28;20029;-66
2023/09/28 04:08:26;;;;;;;15.70;8.55;;;;;;;13.98;61.44;101023.81;5036496;28;20025;-64
2023/09/28 04:10:52;;;;;;;17.77;9.13;;;;;;;15.07;58.36;101026.19;5035596;28;20033;-66
2023/09/28 04:13:17;;;;;;;19.50;9.55;;;;;;;16.51;53.94;101032.34;5035292;28;20542;-65
2023/09/28 04:15:43;;;;;;;12.75;8.23;;;;;;;17.70;50.28;101023.66;5035621;28;20415;-65
2023/09/28 04:18:08;;;;;;;15.90;8.18;;;;;;;18.61;47.98;101005.34;5048272;28;20458;-65
2023/09/28 04:20:35;;;;;;;12.55;7.97;;;;;;;19.63;45.75;101028.00;5055250;28;20037;-67
2023/09/28 04:23:05;;;;;;;14.27;8.50;;;;;;;20.51;43.17;101018.25;5055011;28;20098;-67
2023/09/28 04:25:32;;;;;;;14.40;8.35;;;;;;;21.36;41.38;101027.50;5055328;28;20033;-66
2023/09/28 04:27:57;;;;;;;14.02;8.30;;;;;;;22.14;39.54;101021.00;5055285;28;20750;-66
2023/09/28 04:30:23;;;;;;;16.48;8.32;;;;;;;22.91;37.83;101028.72;5054546;28;20025;-67
2023/09/28 04:32:50;;;;;;;12.00;8.68;;;;;;;23.51;36.65;101034.66;5054606;28;20029;-66
2023/09/28 04:35:17;;;;;;;15.70;8.25;;;;;;;23.92;35.55;101014.38;5055028;28;20064;-66
2023/09/28 04:37:43;;;;;;;13.82;8.13;;;;;;;24.64;34.28;101022.28;5054490;28;20063;-63
2023/09/28 04:40:10;;;;;;;9.60;7.43;;;;;;;25.25;33.32;101018.50;5036305;28;20029;-65
2023/09/28 04:42:36;;;;;;;14.40;8.27;;;;;;;25.79;31.77;101013.63;5035168;28;20029;-64
2023/09/28 04:45:02;;;;;;;15.70;7.72;;;;;;;26.32;30.75;100995.97;5034932;28;20416;-68
2023/09/28 04:47:31;;;;;;;10.30;7.65;;;;;;;27.02;29.87;101009.72;5035972;28;20098;-66
2023/09/28 04:49:57;;;;;;;12.55;7.78;;;;;;;27.33;29.28;101007.50;5035140;28;20102;-67
2023/09/28 04:52:22;;;;;;;16.30;8.43;;;;;;;27.75;28.71;101010.19;5035011;28;20447;-67
2023/09/28 04:54:49;;;;;;;18.23;7.55;;;;;;;28.18;27.86;101014.47;5034700;28;20033;-65
2023/09/28 04:57:15;;;;;;;11.20;7.65;;;;;;;28.63;27.30;100983.47;5034794;28;20033;-70
2023/09/28 04:59:41;;;;;;;14.35;7.25;;;;;;;29.42;26.38;101013.75;5035557;28;20022;-65
2023/09/28 05:02:08;;;;;;;16.30;7.18;;;;;;;30.02;25.34;101008.94;5034952;28;20025;-61
2023/09/28 05:04:34;;;;;;;10.68;6.70;;;;;;;30.63;24.44;101006.50;5033460;28;20510;-63
2023/09/28 05:07:00;;;;;;;10.73;6.82;;;;;;;31.11;23.76;101006.75;5034866;28;20021;-63
2023/09/28 05:09:26;;;;;;;8.93;6.00;;;;;;;31.48;22.87;101026.09;5034755;28;20040;-64
2023/09/28 05:11:53;;;;;;;9.70;5.75;;;;;;;32.05;22.40;101019.28;5034336;28;20037;-63
2023/09/28 05:14:24;;;;;;;10.55;5.78;;;;;;;32.41;21.67;100991.63;5033888;28;20073;-63
2023/09/28 05:16:50;;;;;;;14.25;6.03;;;;;;;32.87;21.10;101000.13;5037564;28;20049;-63
2023/09/28 05:19:16;;;;;;;10.63;5.57;;;;;;;33.34;20.65;101011.09;5053757;28;20021;-61
2023/09/28 05:21:41;;;;;;;8.25;5.20;;;;;;;33.47;20.37;100992.47;5034241;28;20090;-64
2023/09/28 05:24:07;;;;;;;10.77;5.70;;;;;;;33.90;19.86;101017.97;5045895;28;20035;-64
2023/09/28 05:26:32;;;;;;;14.52;6.10;;;;;;;34.11;19.78;101016.38;5032429;28;20045;-62
2023/09/28 05:28:58;;;;;;;9.93;5.35;;;;;;;34.06;19.59;100988.53;5031628;28;20616;-64
2023/09/28 05:31:24;;;;;;;7.30;5.45;;;;;;;33.99;19.50;101015.63;5032266;28;20044;-66
2023/09/28 05:33:50;;;;;;;8.52;5.95;;;;;;;34.41;19.29;101011.56;5032541;28;20029;-63
2023/09/28 05:36:15;;;;;;;10.05;5.70;;;;;;;35.08;18.33;101011.66;5052205;28;20380;-60
2023/09/28 05:38:41;;;;;;;9.95;5.43;;;;;;;34.84;18.70;101009.09;5053362;28;20029;-65
2023/09/28 05:41:07;;;;;;;9.63;5.95;;;;;;;34.11;19.27;101012.75;5053787;28;20375;-64
2023/09/28 05:43:32;;;;;;;10.38;5.68;;;;;;;34.41;19.13;101019.91;5053819;28;20025;-66
2023/09/28 05:45:58;;;;;;;9.27;6.30;;;;;;;35.09;18.08;101018.91;5053916;28;20029;-65
2023/09/28 05:48:24;;;;;;;10.77;6.10;;;;;;;35.98;17.45;101027.06;5050351;28;20409;-66
2023/09/28 05:50:50;;;;;;;9.02;6.40;;;;;;;36.63;17.04;101013.91;5050108;28;20082;-63
2023/09/28 05:53:15;;;;;;;10.43;6.85;;;;;;;36.38;17.18;101017.34;5040231;28;20034;-65
2023/09/28 05:55:41;;;;;;;9.25;6.50;;;;;;;35.97;17.67;101019.81;5033503;28;20116;-66
2023/09/28 05:58:06;;;;;;;12.40;5.93;;;;;;;35.88;17.62;101014.72;5033893;28;20040;-65
2023/09/28 06:00:32;;;;;;;15.38;7.05;;;;;;;36.66;17.18;101020.06;5033327;28;20025;-64
2023/09/28 06:02:58;;;;;;;14.75;6.82;;;;;;;37.60;16.06;101013.72;5033373;28;20044;-65
2023/09/28 06:05:23;;;;;;;12.63;6.63;;;;;;;38.52;15.13;101011.16;5032579;28;20034;-65
2023/09/28 06:07:49;;;;;;;12.15;6.95;;;;;;;39.18;14.96;101014.84;5033690;28;20514;-65
2023/09/28 06:10:15;;;;;;;13.05;6.55;;;;;;;39.68;14.63;101020.44;5033866;28;20347;-66
2023/09/28 06:12:41;;;;;;;13.50;6.22;;;;;;;40.10;14.04;101018.13;5033006;28;20505;-65
2023/09/28 06:15:07;;;;;;;10.75;6.05;;;;;;;40.54;13.55;101001.44;5032948;28;20219;-65
2023/09/28 06:17:33;;;;;;;17.27;6.72;;;;;;;41.25;13.21;101010.09;5033470;28;20041;-66
2023/09/28 06:19:58;;;;;;;14.35;6.30;;;;;;;41.84;12.98;101001.31;5033340;28;20106;-65
2023/09/28 06:22:25;;;;;;;9.38;6.30;;;;;;;41.95;12.66;101001.13;5033490;28;20083;-64
2023/09/28 06:24:50;;;;;;;9.52;5.88;;;;;;;41.61;12.52;100997.50;5033253;28;20037;-67
2023/09/28 06:27:16;;;;;;;11.48;5.88;;;;;;;41.73;12.43;100999.84;5033402;28;20408;-65
2023/09/28 06:29:41;;;;;;;7.88;5.65;;;;;;;42.01;12.50;100999.91;5033357;28;20029;-64
2023/09/28 06:32:07;;;;;;;12.93;6.05;;;;;;;42.43;12.17;101002.78;5033150;28;20199;-66
2023/09/28 06:34:32;;;;;;;8.35;5.38;;;;;;;42.66;11.85;100994.47;5033065;28;20429;-65
2023/09/28 06:36:58;;;;;;;12.20;5.63;;;;;;;42.99;11.62;101000.81;5033425;28;20076;-65
2023/09/28 06:39:23;;;;;;;13.20;5.72;;;;;;;43.26;11.69;100979.34;5033199;28;20033;-65
2023/09/28 06:41:49;;;;;;;12.80;5.60;;;;;;;43.53;11.34;100991.69;5033094;28;20025;-63
2023/09/28 06:44:14;;;;;;;9.25;5.70;;;;;;;43.63;11.36;100981.28;5033076;28;20128;-65
2023/09/28 06:46:40;;;;;;;12.18;5.53;;;;;;;43.50;10.91;100975.41;5033349;28;20124;-66
2023/09/28 06:49:08;;;;;;;12.13;5.70;;;;;;;43.34;11.14;100971.31;5032754;28;20025;-66
2023/09/28 06:51:34;;;;;;;9.68;5.18;;;;;;;43.30;10.87;100966.31;5032819;28;20083;-65
2023/09/28 06:54:00;;;;;;;8.43;5.28;;;;;;;43.21;10.85;100973.84;5033039;28;20461;-64
2023/09/28 06:56:26;;;;;;;8.60;4.93;;;;;;;43.43;11.18;100970.22;5032183;28;20112;-64
2023/09/28 06:58:53;;;;;;;11.23;5.30;;;;;;;43.70;10.97;100959.13;5032798;28;20025;-65
2023/09/28 07:01:19;;;;;;;10.80;5.40;;;;;;;43.80;10.59;100949.59;5033021;28;20029;-65
2023/09/28 07:03:45;;;;;;;10.35;4.93;;;;;;;43.45;10.77;100945.38;5033015;28;20029;-65
2023/09/28 07:06:10;;;;;;;9.75;4.90;;;;;;;43.02;11.10;100952.28;5032819;28;20025;-66
2023/09/28 07:08:36;;;;;;;10.82;4.60;;;;;;;43.05;10.85;100955.63;5032750;28;20091;-65
2023/09/28 07:11:01;;;;;;;8.30;5.43;;;;;;;42.99;11.01;100943.63;5032664;28;20040;-65
2023/09/28 07:13:27;;;;;;;7.45;5.10;;;;;;;43.13;11.25;100940.78;5032868;28;20049;-66
2023/09/28 07:15:57;;;;;;;9.05;5.03;;;;;;;43.39;11.23;100940.16;5032763;28;20091;-66
2023/09/28 07:18:22;;;;;;;9.13;5.07;;;;;;;43.46;11.06;100937.75;5032330;28;20037;-66
2023/09/28 07:20:50;;;;;;;10.43;5.28;;;;;;;43.59;11.10;100944.47;5032650;28;20124;-67
2023/09/28 07:23:16;;;;;;;7.43;5.15;;;;;;;43.22;11.30;100938.03;5032921;28;20073;-66
2023/09/28 07:25:42;;;;;;;13.88;5.45;;;;;;;43.31;11.07;100944.63;5032358;28;20053;-66
2023/09/28 07:28:07;;;;;;;5.78;4.80;;;;;;;43.25;11.07;100935.41;5032375;28;20419;-65
2023/09/28 07:30:35;;;;;;;10.18;5.15;;;;;;;43.20;11.02;100946.81;5031340;28;20463;-65
2023/09/28 07:33:00;;;;;;;13.00;4.63;;;;;;;42.95;11.37;100934.16;5032944;28;20025;-65
2023/09/28 07:35:26;;;;;;;9.75;5.38;;;;;;;42.53;11.65;100939.84;5032498;28;20420;-66
2023/09/28 07:37:51;;;;;;;7.55;5.05;;;;;;;41.83;11.93;100928.50;5032582;28;20463;-66
2023/09/28 07:40:17;;;;;;;9.57;5.07;;;;;;;40.96;12.57;100937.19;5032544;28;20041;-66
2023/09/28 07:42:44;;;;;;;6.57;5.22;;;;;;;39.80;13.43;100938.78;5032312;28;20112;-66
2023/09/28 07:45:12;;;;;;;14.40;6.10;;;;;;;37.97;14.69;100936.34;5032480;28;20449;-65
2023/09/28 07:47:38;;;;;;;10.00;5.03;;;;;;;35.79;16.78;100941.09;5032257;28;20530;-66
2023/09/28 07:50:10;;;;;;;11.10;5.38;;;;;;;33.81;18.97;100938.91;5032225;28;20037;-65
2023/09/28 07:52:36;;;;;;;7.63;4.55;;;;;;;31.75;20.89;100934.34;5031466;28;20026;-64
2023/09/28 07:55:02;;;;;;;6.78;4.32;;;;;;;30.17;22.80;100918.31;5032089;28;20032;-64
2023/09/28 07:57:32;;;;;;;10.68;4.50;;;;;;;28.79;24.49;100888.47;5031792;28;20487;-65
2023/09/28 07:59:57;;;;;;;6.88;4.30;;;;;;;27.86;26.23;100918.75;5032105;28;20441;-64
2023/09/28 08:02:23;;;;;;;10.55;4.47;;;;;;;26.98;27.40;100930.66;5032025;28;20055;-62
2023/09/28 08:04:48;;;;;;;9.02;4.20;;;;;;;26.36;28.39;100929.47;5032208;28;20071;-65
2023/09/28 08:07:15;;;;;;;9.32;4.18;;;;;;;25.89;29.19;100920.88;5031789;28;20036;-65
2023/09/28 08:09:42;;;;;;;9.68;4.38;;;;;;;25.51;29.55;100907.47;5032146;28;20025;-65
2023/09/28 08:12:08;;;;;;;12.00;4.50;;;;;;;25.21;30.56;100913.91;5032223;28;20042;-65
2023/09/28 08:14:34;;;;;;;12.02;4.75;;;;;;;24.98;31.09;100919.53;5032077;28;20095;-66
2023/09/28 08:17:00;;;;;;;6.05;3.80;;;;;;;24.90;31.18;100923.22;5032121;28;20133;-65
2023/09/28 08:19:25;;;;;;;7.03;4.40;;;;;;;24.75;31.40;100916.94;5031960;28;20030;-65
2023/09/28 08:21:51;;;;;;;7.80;4.22;;;;;;;24.58;31.86;100908.91;5032106;28;20026;-65
2023/09/28 08:24:17;;;;;;;8.10;4.40;;;;;;;24.35;32.12;100903.50;5037490;28;20451;-66
2023/09/28 08:26:43;;;;;;;7.75;4.13;;;;;;;24.25;32.37;100902.97;5050240;28;20337;-65
2023/09/28 08:29:08;;;;;;;8.95;4.50;;;;;;;24.21;32.80;100913.41;5051548;28;20025;-65
2023/09/28 08:31:34;;;;;;;11.43;4.40;;;;;;;24.13;32.82;100899.84;5051661;28;20107;-64
2023/09/28 08:33:59;;;;;;;11.52;3.83;;;;;;;24.13;32.88;100892.50;5050473;28;20037;-65
2023/09/28 08:36:26;;;;;;;6.25;4.28;;;;;;;24.16;32.80;100894.84;5051706;28;20098;-62
2023/09/28 08:38:53;;;;;;;8.57;4.20;;;;;;;24.02;33.05;100880.13;5055279;28;20356;-65
2023/09/28 08:41:36;;;;;;;9.68;4.53;;;;;;;24.08;33.14;100900.38;5054613;28;20036;-63
2023/09/28 08:44:05;;;;;;;5.43;4.32;;;;;;;24.03;33.13;100894.63;5054721;28;20040;-64
2023/09/28 08:46:37;;;;;;;7.30;4.35;;;;;;;23.99;33.62;100891.38;5054726;28;20025;-64
2023/09/28 08:49:07;;;;;;;11.77;4.30;;;;;;;24.01;33.36;100888.47;5054409;28;20099;-65
2023/09/28 08:51:40;;;;;;;11.15;4.50;;;;;;;24.19;32.74;100882.66;5054905;28;20029;-64
2023/09/28 08:54:05;;;;;;;9.57;4.00;;;;;;;24.10;33.00;100881.91;5054733;28;20029;-65
2023/09/28 08:56:37;;;;;;;6.70;3.72;;;;;;;24.11;32.73;100880.03;5054583;28;20032;-64
2023/09/28 08:59:04;;;;;;;6.63;4.05;;;;;;;24.02;32.85;100876.53;5055423;28;20029;-63
2023/09/28 09:01:32;;;;;;;7.07;4.50;;;;;;;23.99;32.76;100871.41;5054740;28;20383;-62
2023/09/28 09:03:58;;;;;;;5.65;4.28;;;;;;;23.93;33.13;100862.91;5054446;28;20475;-64
2023/09/28 09:06:27;;;;;;;8.02;4.30;;;;;;;23.89;33.38;100852.53;5054833;28;20029;-65
2023/09/28 09:08:57;;;;;;;9.77;4.10;;;;;;;23.85;33.62;100862.97;5055193;28;20029;-65
2023/09/28 09:11:25;;;;;;;6.53;4.10;;;;;;;23.85;33.69;100865.72;5054993;28;20032;-65
2023/09/28 09:13:51;;;;;;;7.03;4.18;;;;;;;23.86;33.41;100859.22;5053944;28;20045;-64
2023/09/28 09:16:17;;;;;;;8.52;3.80;;;;;;;23.85;33.43;100851.22;5054625;28;20095;-64
2023/09/28 09:18:43;;;;;;;5.60;4.03;;;;;;;23.78;33.22;100846.50;5054792;28;20455;-64
2023/09/28 09:21:08;;;;;;;8.50;4.72;;;;;;;23.79;34.16;100844.59;5054455;28;20037;-71
2023/09/28 09:23:35;;;;;;;9.77;3.95;;;;;;;23.79;33.68;100852.78;5054066;28;20029;-65
2023/09/28 09:26:02;;;;;;;7.15;3.97;;;;;;;23.76;33.40;100850.44;5054129;28;20448;-63
2023/09/28 09:28:34;;;;;;;6.35;3.30;;;;;;;23.76;33.46;100861.38;5054609;28;20064;-65
2023/09/28 09:31:03;;;;;;;7.60;3.67;;;;;;;23.65;33.72;100852.59;5054287;28;20031;-64
2023/09/28 09:33:29;;;;;;;8.05;3.90;;;;;;;23.56;33.97;100844.66;5053291;28;20029;-66
2023/09/28 09:35:55;;;;;;;10.18;4.22;;;;;;;23.62;33.87;100846.63;5046471;28;20037;-67
2023/09/28 09:38:30;;;;;;;9.10;3.70;;;;;;;23.74;33.63;100841.56;5047395;28;20021;-61
2023/09/28 09:40:57;;;;;;;;;;;;;;;24.04;32.25;100838.88;5041794;28;20037;-63
2023/09/28 09:43:23;;;;;;;8.98;3.95;;;;;;;23.75;33.61;100829.59;5033356;28;19917;-63
2023/09/28 09:45:49;;;;;;;13.95;4.22;;;;;;;23.66;33.66;100809.69;5034385;28;20037;-63
2023/09/28 09:48:16;;;;;;;9.25;4.10;;;;;;;23.77;33.66;100831.13;5033876;28;20040;-61
2023/09/28 09:50:43;;;;;;;6.25;3.78;;;;;;;23.78;33.65;100824.63;5032975;28;20025;-63
2023/09/28 09:53:09;;;;;;;14.57;4.10;;;;;;;23.83;33.98;100818.56;5033003;28;20041;-64
2023/09/28 09:55:39;;;;;;;4.30;3.63;;;;;;;23.86;33.70;100814.63;5031500;28;20045;-65
2023/09/28 09:58:06;;;;;;;8.20;3.50;;;;;;;23.77;33.51;100801.03;5024098;28;20037;-66
2023/09/28 10:00:33;;;;;;;7.68;3.63;;;;;;;23.94;33.23;100823.59;5032281;28;20033;-65
2023/09/28 10:03:03;;;;;;;8.18;3.90;;;;;;;24.01;33.04;100821.00;5049399;28;20037;-66
2023/09/28 10:05:30;;;;;;;5.25;3.50;;;;;;;24.05;32.74;100825.03;5049372;28;20039;-64
2023/09/28 10:07:57;;;;;;;5.32;3.58;;;;;;;23.99;33.14;100823.00;5052147;28;20039;-65
2023/09/28 10:10:29;;;;;;;9.88;3.83;;;;;;;23.91;32.93;100788.41;5051553;28;20037;-66
2023/09/28 10:12:56;;;;;;;7.30;3.53;;;;;;;23.98;32.54;100817.75;5043537;28;20064;-65
2023/09/28 10:15:22;;;;;;;5.68;3.53;;;;;;;23.89;32.66;100817.84;5034225;28;20046;-69
2023/09/28 10:17:49;;;;;;;6.63;3.67;;;;;;;23.85;32.62;100816.50;5030938;28;20525;-66
2023/09/28 10:20:15;;;;;;;5.32;3.75;;;;;;;23.83;33.01;100810.38;5032137;28;20065;-66
2023/09/28 10:22:44;;;;;;;4.72;3.47;;;;;;;23.86;32.69;100807.25;5050502;28;20044;-66
2023/09/28 10:25:12;;;;;;;10.68;3.80;;;;;;;23.51;32.71;100744.06;5050240;28;20340;-67
2023/09/28 10:27:39;;;;;;;7.50;3.95;;;;;;;23.86;32.70;100801.78;5050757;28;20036;-67
2023/09/28 10:30:21;;;;;;;6.68;3.42;;;;;;;24.08;33.00;100802.78;5050192;28;20048;-66
2023/09/28 10:32:50;;;;;;;5.30;3.40;;;;;;;24.08;32.42;100791.84;5044799;28;20029;-66
2023/09/28 10:35:19;;;;;;;8.82;3.47;;;;;;;24.14;32.63;100798.44;5032159;28;20040;-65
2023/09/28 10:38:15;;;;;;;5.85;3.40;;;;;;;24.23;31.87;100786.34;5039421;28;20098;-67
2023/09/28 10:40:42;;;;;;;8.63;3.20;;;;;;;24.13;32.20;100801.34;5049329;28;20115;-67
2023/09/28 10:43:09;;;;;;;3.97;3.28;;;;;;;24.06;32.33;100793.03;5052112;28;20044;-66
2023/09/28 10:45:37;;;;;;;3.78;3.20;;;;;;;24.06;32.66;100793.91;5046968;28;20372;-67
2023/09/28 10:48:06;;;;;;;5.78;3.30;;;;;;;24.08;32.25;100788.22;5035712;28;20033;-66
2023/09/28 10:50:38;;;;;;;4.20;3.33;;;;;;;24.10;32.07;100777.94;5036494;28;20028;-66
2023/09/28 10:53:03;;;;;;;6.15;3.17;;;;;;;23.83;32.13;100752.94;5052857;28;20025;-65
2023/09/28 10:55:29;;;;;;;6.93;3.55;;;;;;;23.77;31.64;100745.50;5040438;28;20029;-67
2023/09/28 10:57:54;;;;;;;6.90;3.47;;;;;;;23.92;31.02;100776.44;5031759;28;20033;-67
2023/09/28 11:00:23;;;;;;;3.97;3.30;;;;;;;23.82;31.66;100764.91;5031493;28;20029;-68
2023/09/28 11:02:48;;;;;;;8.20;3.75;;;;;;;23.64;31.81;100755.22;5035877;28;20033;-67
2023/09/28 11:05:14;;;;;;;5.30;3.42;;;;;;;23.45;31.79;100742.94;5031317;28;20356;-65
2023/09/28 11:07:40;;;;;;;5.63;3.60;;;;;;;23.54;32.39;100760.09;5031664;28;20037;-65
2023/09/28 11:10:08;;;;;;;7.15;3.17;;;;;;;23.48;32.91;100756.22;5031974;28;20029;-65
2023/09/28 11:12:34;;;;;;;7.22;3.50;;;;;;;23.58;32.75;100764.16;5032050;28;20045;-64
2023/09/28 11:15:01;;;;;;;7.00;3.30;;;;;;;23.67;32.52;100755.88;5032667;28;20029;-67
2023/09/28 11:17:30;;;;;;;7.22;3.38;;;;;;;23.67;32.33;100734.84;5031920;28;20049;-65
2023/09/28 11:19:56;;;;;;;5.80;3.42;;;;;;;23.75;32.22;100737.50;5032730;28;20345;-66
2023/09/28 11:22:21;;;;;;;7.18;3.28;;;;;;;23.87;31.29;100753.41;5048828;28;20055;-67